PAMD METAR and TAF weather

Enter ICAO airport designator
Station Type Date Time Source
PAMD METAR 2022/01/27 23:35 UTC NOAA

PAMD 272335Z AUTO 08013KT 3/4SM -RA BR BKN004 OVC008 04/04 A2937 RMK AO2 RAB11 PNO $


Station Type Date Time Source
PAMD Decoded METAR 2022/01/27 23:35 UTC NOAA

Middleton Island, Middleton Island Airport, AK, United States (PAMD) 59-26N 146-18W 14M
Jan 27, 2022 - 06:35 PM EST / 2022.01.27 2335 UTC
Wind: from the E (080 degrees) at 15 MPH (13 KT):0
Visibility: 3/4 mile(s):0
Sky conditions: overcast
Weather: light rain; mist
Temperature: 39 F (4 C)
Dew Point: 39 F (4 C)
Relative Humidity: 100%
Pressure (altimeter): 29.37 in. Hg (994 hPa)
ob: PAMD 272335Z AUTO 08013KT 3/4SM -RA BR BKN004 OVC008 04/04 A2937 RMK AO2 RAB11 PNO
cycle: 23

Station Type Date Time Source
PAMD TAF UTC NOAA

Error!

Example: see airport list